createdAt,value
2023-01-05T00:00:56.446Z,2.40
2023-01-05T00:03:24.615Z,1.50
2023-01-05T00:05:51.979Z,1.40
2023-01-05T00:08:19.614Z,2.07
2023-01-05T00:11:06.868Z,1.53
2023-01-05T00:13:54.230Z,1.80
2023-01-05T00:16:41.531Z,2.37
2023-01-05T00:19:33.414Z,2.90
2023-01-05T00:22:20.679Z,2.87
2023-01-05T00:24:48.200Z,1.90
2023-01-05T00:27:15.710Z,1.77
2023-01-05T00:29:43.214Z,2.10
2023-01-05T00:32:10.651Z,2.30
2023-01-05T00:34:38.263Z,1.97
2023-01-05T00:37:05.818Z,2.77
2023-01-05T00:39:33.336Z,2.57
2023-01-05T00:42:01.018Z,2.23
2023-01-05T00:44:28.568Z,2.33
2023-01-05T00:46:56.068Z,2.73
2023-01-05T00:49:24.143Z,2.40
2023-01-05T00:51:51.640Z,3.03
2023-01-05T00:54:19.017Z,3.37
2023-01-05T00:56:49.871Z,5.33
2023-01-05T00:59:17.795Z,2.90
2023-01-05T01:01:47.263Z,2.93
2023-01-05T01:04:15.135Z,5.33
2023-01-05T01:06:42.840Z,4.50
2023-01-05T01:09:10.636Z,5.40
2023-01-05T01:11:38.162Z,4.60
2023-01-05T01:14:06.596Z,5.47
2023-01-05T01:16:34.252Z,3.50
2023-01-05T01:19:05.358Z,3.50
2023-01-05T01:21:33.132Z,4.80
2023-01-05T01:24:00.728Z,4.17
2023-01-05T01:26:28.272Z,3.70
2023-01-05T01:28:55.696Z,4.53
2023-01-05T01:31:23.200Z,4.43
2023-01-05T01:33:50.659Z,4.53
2023-01-05T01:36:18.279Z,4.60
2023-01-05T01:38:45.638Z,4.13
2023-01-05T01:41:14.134Z,3.50
2023-01-05T01:43:44.144Z,4.73
2023-01-05T01:46:12.731Z,3.70
2023-01-05T01:48:47.879Z,3.57
2023-01-05T01:51:17.347Z,2.20
2023-01-05T01:53:48.001Z,3.70
2023-01-05T01:56:17.027Z,5.13
2023-01-05T01:58:44.899Z,3.63
2023-01-05T02:01:12.461Z,3.33
2023-01-05T02:03:40.195Z,4.00
2023-01-05T02:06:08.390Z,3.63
2023-01-05T02:08:36.037Z,2.97
2023-01-05T02:11:23.435Z,4.17
2023-01-05T02:14:11.148Z,4.07
2023-01-05T02:16:58.480Z,3.67
2023-01-05T02:19:45.870Z,3.10
2023-01-05T02:22:23.843Z,3.47
2023-01-05T02:25:11.121Z,3.37
2023-01-05T02:27:58.338Z,2.37
2023-01-05T02:30:34.988Z,3.47
2023-01-05T02:33:22.349Z,3.27
2023-01-05T02:36:09.698Z,3.33
2023-01-05T02:38:45.905Z,1.90
2023-01-05T02:41:18.197Z,3.30
2023-01-05T02:43:46.443Z,3.83
2023-01-05T02:46:14.031Z,3.00
2023-01-05T02:48:42.594Z,3.53
2023-01-05T02:51:13.599Z,2.53
2023-01-05T02:53:42.513Z,3.30
2023-01-05T02:56:12.969Z,2.47
2023-01-05T02:58:42.703Z,3.37
2023-01-05T03:01:13.862Z,3.50
2023-01-05T03:03:44.607Z,2.40
2023-01-05T03:06:16.187Z,3.23
2023-01-05T03:08:50.169Z,2.10
2023-01-05T03:11:37.477Z,2.23
2023-01-05T03:14:09.272Z,2.10
2023-01-05T03:16:38.071Z,2.43
2023-01-05T03:19:28.688Z,1.37
2023-01-05T03:22:16.129Z,1.70
2023-01-05T03:25:03.709Z,1.97
2023-01-05T03:27:51.772Z,1.83
2023-01-05T03:30:39.599Z,1.73
2023-01-05T03:33:30.666Z,2.07
2023-01-05T03:35:59.637Z,1.27
2023-01-05T03:38:44.372Z,2.67
2023-01-05T03:41:14.533Z,2.17
2023-01-05T03:43:42.625Z,1.50
2023-01-05T03:46:11.566Z,1.70
2023-01-05T03:48:39.011Z,2.30
2023-01-05T03:51:06.927Z,1.60
2023-01-05T03:53:34.555Z,2.43
2023-01-05T03:56:01.955Z,4.47
2023-01-05T03:58:29.534Z,2.00
2023-01-05T04:00:56.911Z,2.37
2023-01-05T04:03:31.078Z,2.17
2023-01-05T04:05:59.378Z,2.22
2023-01-05T04:08:26.894Z,2.37
2023-01-05T04:10:54.751Z,1.40
2023-01-05T04:13:22.314Z,1.30
2023-01-05T04:15:49.833Z,1.13
2023-01-05T04:18:17.219Z,2.17
2023-01-05T04:20:44.741Z,2.10
2023-01-05T04:23:12.159Z,1.60
2023-01-05T04:25:39.661Z,1.90
2023-01-05T04:28:07.086Z,1.40
2023-01-05T04:30:34.571Z,1.10
2023-01-05T04:33:01.929Z,1.23
2023-01-05T04:35:29.316Z,1.30
2023-01-05T04:37:56.689Z,1.10
2023-01-05T04:40:24.213Z,1.40
2023-01-05T04:42:51.597Z,1.13
2023-01-05T04:45:18.983Z,1.10
2023-01-05T04:47:46.607Z,1.30
2023-01-05T04:50:14.373Z,0.70
2023-01-05T04:52:41.831Z,1.00
2023-01-05T04:55:09.894Z,1.23
2023-01-05T04:57:37.507Z,1.80
2023-01-05T05:00:05.838Z,1.13
2023-01-05T05:02:33.452Z,1.47
2023-01-05T05:05:01.013Z,2.13
2023-01-05T05:07:28.609Z,2.07
2023-01-05T05:09:56.034Z,2.13
2023-01-05T05:12:23.569Z,2.40
2023-01-05T05:14:51.181Z,2.50
2023-01-05T05:17:18.624Z,2.27
2023-01-05T05:19:46.130Z,3.33
2023-01-05T05:22:14.045Z,2.03
2023-01-05T05:24:42.092Z,2.37
2023-01-05T05:27:10.433Z,2.73
2023-01-05T05:29:37.845Z,2.03
2023-01-05T05:32:05.490Z,1.93
2023-01-05T05:34:33.030Z,2.33
2023-01-05T05:37:00.489Z,3.37
2023-01-05T05:39:28.101Z,2.90
2023-01-05T05:41:55.520Z,2.80
2023-01-05T05:44:24.124Z,2.30
2023-01-05T05:46:51.526Z,2.50
2023-01-05T05:49:19.146Z,3.30
2023-01-05T05:51:46.498Z,3.97
2023-01-05T05:54:14.022Z,3.87
2023-01-05T05:56:41.606Z,3.77
2023-01-05T05:59:09.159Z,3.97
2023-01-05T06:01:36.759Z,3.37
2023-01-05T06:04:04.257Z,3.47
2023-01-05T06:06:31.910Z,3.40
2023-01-05T06:08:59.347Z,3.47
2023-01-05T06:11:26.783Z,3.27
2023-01-05T06:13:54.225Z,2.87
2023-01-05T06:16:21.728Z,2.90
2023-01-05T06:18:49.356Z,3.17
2023-01-05T06:21:16.932Z,3.30
2023-01-05T06:23:44.364Z,3.17
2023-01-05T06:26:12.147Z,3.63
2023-01-05T06:28:39.591Z,2.97
2023-01-05T06:31:07.472Z,2.47
2023-01-05T06:33:35.024Z,2.77
2023-01-05T06:36:02.453Z,2.30
2023-01-05T06:38:30.355Z,3.60
2023-01-05T06:40:58.393Z,2.10
2023-01-05T06:43:25.828Z,2.37
2023-01-05T06:45:53.328Z,2.57
2023-01-05T06:48:20.755Z,1.77
2023-01-05T06:50:48.245Z,1.90
2023-01-05T06:53:15.712Z,1.70
2023-01-05T06:55:43.116Z,2.03
2023-01-05T06:58:10.853Z,2.70
2023-01-05T07:00:38.395Z,2.23
2023-01-05T07:03:07.374Z,2.00
2023-01-05T07:05:35.019Z,2.37
2023-01-05T07:08:02.556Z,2.37
2023-01-05T07:10:30.436Z,2.00
2023-01-05T07:12:58.173Z,1.50
2023-01-05T07:15:25.585Z,1.70
2023-01-05T07:17:53.042Z,2.00
2023-01-05T07:20:20.586Z,1.30
2023-01-05T07:22:48.037Z,2.17
2023-01-05T07:25:15.514Z,2.30
2023-01-05T07:27:43.081Z,2.80
2023-01-05T07:30:10.920Z,1.20
2023-01-05T07:32:38.570Z,2.10
2023-01-05T07:35:06.225Z,1.30
2023-01-05T07:37:33.776Z,2.33
2023-01-05T07:40:01.277Z,1.43
2023-01-05T07:42:28.798Z,1.80
2023-01-05T07:44:56.257Z,2.13
2023-01-05T07:47:23.830Z,1.57
2023-01-05T07:49:51.233Z,1.80
2023-01-05T07:52:18.725Z,2.60
2023-01-05T07:54:46.154Z,1.70
2023-01-05T07:57:13.630Z,1.87
2023-01-05T07:59:41.167Z,1.27
2023-01-05T08:02:09.898Z,2.27
2023-01-05T08:04:37.504Z,2.50
2023-01-05T08:07:11.489Z,2.30
2023-01-05T08:09:59.732Z,2.17
2023-01-05T08:12:29.088Z,2.53
2023-01-05T08:14:56.473Z,2.77
2023-01-05T08:17:23.934Z,2.97
2023-01-05T08:19:51.415Z,3.23
2023-01-05T08:22:18.904Z,4.30
2023-01-05T08:24:46.401Z,2.57
2023-01-05T08:27:13.829Z,2.50
2023-01-05T08:29:41.356Z,2.40
2023-01-05T08:32:11.936Z,2.07
2023-01-05T08:34:39.462Z,2.50
2023-01-05T08:37:07.351Z,3.37
2023-01-05T08:39:36.366Z,2.43
2023-01-05T08:42:03.802Z,1.57
2023-01-05T08:44:31.447Z,2.33
2023-01-05T08:46:58.845Z,2.30
2023-01-05T08:49:26.270Z,2.07
2023-01-05T08:51:53.606Z,2.53
2023-01-05T08:54:21.024Z,1.40
2023-01-05T08:56:50.808Z,1.40
2023-01-05T08:59:18.293Z,1.83
2023-01-05T09:01:45.885Z,2.33
2023-01-05T09:04:13.381Z,2.20
2023-01-05T09:06:41.566Z,3.20
2023-01-05T09:09:09.455Z,1.93
2023-01-05T09:11:37.459Z,2.33
2023-01-05T09:14:04.861Z,1.77
2023-01-05T09:19:21.238Z,2.90
2023-01-05T09:21:48.887Z,1.30
2023-01-05T09:24:16.290Z,2.20
2023-01-05T09:26:44.133Z,1.90
2023-01-05T09:29:12.394Z,1.43
2023-01-05T09:31:41.476Z,2.60
2023-01-05T09:34:09.269Z,2.50
2023-01-05T09:36:39.590Z,2.37
2023-01-05T09:39:07.222Z,1.93
2023-01-05T09:41:54.507Z,2.40
2023-01-05T09:44:41.865Z,1.67
2023-01-05T09:47:29.357Z,1.70
2023-01-05T09:49:58.504Z,4.10
2023-01-05T09:52:26.760Z,2.63
2023-01-05T09:54:54.329Z,2.63
2023-01-05T09:57:23.205Z,2.10
2023-01-05T09:59:56.038Z,1.90
2023-01-05T10:02:43.317Z,1.80
2023-01-05T10:05:12.537Z,2.40
2023-01-05T10:07:45.406Z,2.90
2023-01-05T10:10:28.115Z,2.40
2023-01-05T10:13:14.525Z,3.53
2023-01-05T10:15:44.701Z,2.13
2023-01-05T10:18:15.233Z,2.70
2023-01-05T10:20:51.004Z,2.47
2023-01-05T10:23:38.311Z,2.10
2023-01-05T10:26:12.717Z,2.97
2023-01-05T10:28:45.818Z,3.97
2023-01-05T10:31:18.600Z,3.63
2023-01-05T10:34:08.942Z,2.10
2023-01-05T10:37:14.123Z,2.13
2023-01-05T10:40:02.428Z,3.20
2023-01-05T10:42:49.902Z,2.77
2023-01-05T10:45:18.523Z,3.40
2023-01-05T10:47:46.525Z,2.73
2023-01-05T10:50:33.911Z,1.77
2023-01-05T10:53:04.072Z,2.10
2023-01-05T10:55:32.587Z,2.50
2023-01-05T10:58:00.085Z,2.47
2023-01-05T11:00:41.515Z,2.17
2023-01-05T11:03:14.325Z,3.27
2023-01-05T11:05:45.450Z,2.07
2023-01-05T11:08:15.851Z,2.20
2023-01-05T11:10:52.059Z,2.33
2023-01-05T11:13:23.861Z,3.30
2023-01-05T11:15:55.975Z,1.87
2023-01-05T11:18:43.274Z,1.90
2023-01-05T11:21:19.551Z,2.10
2023-01-05T11:23:48.397Z,1.70
2023-01-05T11:26:35.677Z,1.60
2023-01-05T11:29:22.905Z,1.60
2023-01-05T11:32:10.162Z,1.60
2023-01-05T11:34:39.371Z,1.50
2023-01-05T11:37:26.691Z,1.83
2023-01-05T11:39:56.160Z,1.50
2023-01-05T11:42:44.788Z,1.87
2023-01-05T11:45:21.023Z,1.93
2023-01-05T11:47:49.872Z,1.63
2023-01-05T11:50:21.531Z,1.70
2023-01-05T11:52:50.586Z,4.40
2023-01-05T11:55:38.435Z,2.57
2023-01-05T11:58:14.538Z,1.60
2023-01-05T12:01:02.045Z,1.50
2023-01-05T12:03:40.224Z,1.67
2023-01-05T12:06:13.526Z,1.33
2023-01-05T12:08:44.490Z,1.60
2023-01-05T12:11:33.882Z,2.67
2023-01-05T12:14:24.818Z,1.90
2023-01-05T12:16:56.642Z,2.03
2023-01-05T12:19:36.684Z,2.47
2023-01-05T12:22:23.961Z,2.63
2023-01-05T12:25:11.308Z,2.20
2023-01-05T12:28:04.907Z,1.60
2023-01-05T12:34:00.467Z,1.70
2023-01-05T12:34:03.287Z,1.77
2023-01-05T12:36:52.473Z,1.47
2023-01-05T12:39:39.784Z,2.23
2023-01-05T12:42:27.822Z,2.37
2023-01-05T12:45:15.199Z,2.30
2023-01-05T12:48:02.483Z,2.10
2023-01-05T12:50:49.729Z,1.87
2023-01-05T12:53:37.054Z,2.50
2023-01-05T12:56:10.122Z,1.90
2023-01-05T12:58:41.101Z,2.70
2023-01-05T13:01:14.600Z,3.13
2023-01-05T13:03:47.200Z,3.67
2023-01-05T13:06:18.251Z,4.27
2023-01-05T13:08:48.474Z,2.50
2023-01-05T13:11:35.851Z,1.67
2023-01-05T13:14:23.276Z,2.20
2023-01-05T13:16:58.569Z,1.70
2023-01-05T13:21:56.450Z,2.30
2023-01-05T13:24:43.681Z,2.87
2023-01-05T13:27:11.874Z,2.30
2023-01-05T13:29:41.624Z,2.27
2023-01-05T13:35:31.411Z,2.27
2023-01-05T13:38:19.849Z,2.30
2023-01-05T13:41:07.131Z,2.83
2023-01-05T13:43:54.575Z,2.70
2023-01-05T13:46:41.894Z,2.83
2023-01-05T13:49:29.169Z,3.27
2023-01-05T13:52:16.647Z,2.67
2023-01-05T13:55:00.568Z,2.60
2023-01-05T13:57:30.246Z,3.30
2023-01-05T14:00:06.418Z,3.60
2023-01-05T14:02:39.051Z,2.97
2023-01-05T14:05:10.302Z,3.13
2023-01-05T14:07:40.588Z,3.67
2023-01-05T14:10:20.260Z,3.30
2023-01-05T14:12:49.609Z,3.13
2023-01-05T14:15:35.551Z,3.53
2023-01-05T14:18:04.018Z,3.27
2023-01-05T14:20:54.452Z,3.27
2023-01-05T14:23:43.682Z,3.63
2023-01-05T14:26:11.084Z,4.40
2023-01-05T14:28:58.349Z,3.50
2023-01-05T14:31:45.677Z,4.07
2023-01-05T14:34:15.842Z,3.67
2023-01-05T14:37:03.324Z,3.60
2023-01-05T14:39:46.831Z,4.50
2023-01-05T14:42:34.060Z,3.40
2023-01-05T14:45:03.321Z,4.27
2023-01-05T14:47:37.372Z,3.77
2023-01-05T14:50:05.301Z,4.40
2023-01-05T14:52:52.521Z,3.40
2023-01-05T14:55:37.708Z,4.10
2023-01-05T14:58:12.426Z,4.53
2023-01-05T15:01:00.044Z,3.60
2023-01-05T15:03:48.021Z,4.73
2023-01-05T15:06:35.314Z,4.77
2023-01-05T15:09:22.601Z,5.57
2023-01-05T15:12:10.221Z,6.40
2023-01-05T15:14:57.445Z,5.23
2023-01-05T15:17:48.179Z,4.47
2023-01-05T15:20:35.536Z,4.80
2023-01-05T15:23:15.849Z,4.40
2023-01-05T15:26:02.807Z,4.73
2023-01-05T15:28:50.794Z,4.60
2023-01-05T15:31:38.212Z,5.53
2023-01-05T15:34:25.456Z,4.63
2023-01-05T15:37:12.711Z,4.60
2023-01-05T15:39:49.156Z,5.00
2023-01-05T15:42:19.800Z,4.30
2023-01-05T15:44:48.749Z,5.60
2023-01-05T15:47:17.540Z,5.20
2023-01-05T15:49:45.322Z,4.60
2023-01-05T15:52:22.315Z,4.57
2023-01-05T15:54:58.224Z,5.00
2023-01-05T15:57:25.867Z,4.90
2023-01-05T15:59:53.319Z,4.80
2023-01-05T16:02:25.881Z,4.53
2023-01-05T16:05:13.167Z,4.50
2023-01-05T16:07:43.112Z,4.53
2023-01-05T16:10:19.093Z,5.20
2023-01-05T16:12:47.808Z,4.40
2023-01-05T16:15:16.820Z,5.00
2023-01-05T16:17:44.755Z,4.93
2023-01-05T16:20:15.636Z,5.77
2023-01-05T16:22:47.833Z,5.90
2023-01-05T16:25:20.375Z,12.47
2023-01-05T16:27:50.574Z,9.33
2023-01-05T16:30:38.194Z,9.03
2023-01-05T16:33:11.709Z,6.67
2023-01-05T16:35:47.475Z,7.03
2023-01-05T16:38:17.670Z,6.80
2023-01-05T16:41:04.881Z,8.23
2023-01-05T16:43:34.856Z,8.00
2023-01-05T16:46:29.548Z,8.13
2023-01-05T16:49:16.879Z,7.10
2023-01-05T16:51:44.534Z,7.90
2023-01-05T16:54:22.716Z,7.60
2023-01-05T16:56:58.183Z,7.93
2023-01-05T16:59:45.892Z,7.15
2023-01-05T17:02:33.231Z,7.47
2023-01-05T17:05:00.648Z,7.33
2023-01-05T17:10:47.503Z,6.90
2023-01-05T17:13:19.788Z,7.37
2023-01-05T17:15:54.691Z,7.20
2023-01-05T17:18:25.892Z,6.70
2023-01-05T17:20:55.027Z,6.70
2023-01-05T17:23:28.283Z,7.43
2023-01-05T17:25:57.290Z,7.47
2023-01-05T17:28:24.917Z,8.03
2023-01-05T17:30:53.507Z,8.23
2023-01-05T17:33:21.262Z,6.17
2023-01-05T17:35:50.003Z,7.57
2023-01-05T17:38:17.536Z,7.47
2023-01-05T17:40:51.419Z,7.30
2023-01-05T17:43:19.281Z,6.77
2023-01-05T17:45:47.569Z,6.70
2023-01-05T17:48:16.609Z,7.53
2023-01-05T17:50:44.771Z,6.80
2023-01-05T17:53:12.884Z,6.33
2023-01-05T17:55:40.488Z,7.20
2023-01-05T17:58:08.191Z,6.68
2023-01-05T18:00:39.906Z,7.63
2023-01-05T18:03:10.413Z,7.80
2023-01-05T18:05:38.276Z,7.23
2023-01-05T18:10:39.419Z,6.93
2023-01-05T18:15:44.175Z,7.00
2023-01-05T18:18:11.832Z,7.57
2023-01-05T18:20:41.347Z,6.60
2023-01-05T18:23:09.668Z,7.32
2023-01-05T18:25:38.950Z,6.97
2023-01-05T18:28:06.458Z,7.80
2023-01-05T18:30:34.380Z,7.07
2023-01-05T18:33:01.793Z,7.10
2023-01-05T18:35:29.194Z,7.30
2023-01-05T18:38:02.769Z,6.10
2023-01-05T18:40:32.461Z,5.90
2023-01-05T18:43:00.113Z,6.47
2023-01-05T18:45:38.457Z,6.37
2023-01-05T18:48:06.883Z,5.93
2023-01-05T18:50:34.421Z,7.50
2023-01-05T18:53:01.892Z,7.47
2023-01-05T18:55:29.446Z,7.47
2023-01-05T18:57:56.877Z,7.53
2023-01-05T19:00:24.451Z,6.57
2023-01-05T19:02:51.903Z,6.33
2023-01-05T19:05:19.320Z,6.47
2023-01-05T19:07:51.275Z,7.17
2023-01-05T19:10:18.906Z,7.00
2023-01-05T19:12:47.484Z,5.83
2023-01-05T19:15:15.279Z,5.97
2023-01-05T19:17:42.890Z,6.05
2023-01-05T19:20:10.860Z,6.72
2023-01-05T19:22:40.179Z,5.73
2023-01-05T19:25:07.881Z,5.90
2023-01-05T19:27:35.577Z,5.97
2023-01-05T19:30:03.128Z,6.10
2023-01-05T19:32:31.960Z,6.20
2023-01-05T19:34:59.689Z,6.43
2023-01-05T19:37:27.226Z,6.43
2023-01-05T19:39:54.954Z,6.93
2023-01-05T19:42:57.934Z,6.67
2023-01-05T19:45:25.713Z,7.50
2023-01-05T19:47:53.304Z,7.90
2023-01-05T19:50:20.803Z,6.10
2023-01-05T19:52:48.291Z,6.30
2023-01-05T19:55:15.671Z,14.03
2023-01-05T19:57:43.292Z,9.70
2023-01-05T20:00:11.749Z,11.25
2023-01-05T20:02:43.718Z,10.63
2023-01-05T20:05:19.005Z,8.20
2023-01-05T20:07:48.806Z,8.75
2023-01-05T20:10:22.651Z,8.37
2023-01-05T20:12:51.800Z,8.73
2023-01-05T20:15:19.773Z,7.25
2023-01-05T20:17:56.714Z,7.80
2023-01-05T20:20:24.505Z,8.73
2023-01-05T20:22:53.952Z,8.05
2023-01-05T20:25:40.815Z,8.20
2023-01-05T20:28:10.957Z,8.20
2023-01-05T20:30:43.254Z,9.00
2023-01-05T20:33:10.853Z,7.63
2023-01-05T20:35:44.917Z,7.73
2023-01-05T20:38:13.213Z,7.75
2023-01-05T20:40:41.061Z,9.13
2023-01-05T20:43:17.754Z,7.97
2023-01-05T20:45:45.456Z,8.05
2023-01-05T20:48:13.020Z,8.73
2023-01-05T20:50:40.818Z,7.28
2023-01-05T20:53:08.397Z,7.40
2023-01-05T20:55:40.330Z,7.88
2023-01-05T20:58:07.935Z,7.63
2023-01-05T21:00:36.029Z,8.35
2023-01-05T21:03:23.552Z,8.70
2023-01-05T21:05:51.127Z,8.25
2023-01-05T21:08:18.694Z,7.85
2023-01-05T21:10:47.288Z,8.57
2023-01-05T21:13:32.046Z,9.43
2023-01-05T21:16:20.215Z,8.68
2023-01-05T21:18:48.096Z,9.47
2023-01-05T21:21:16.502Z,9.13
2023-01-05T21:23:44.985Z,8.80
2023-01-05T21:26:15.543Z,8.27
2023-01-05T21:28:44.021Z,9.13
2023-01-05T21:31:13.250Z,9.27
2023-01-05T21:33:41.382Z,8.13
2023-01-05T21:36:11.620Z,8.97
2023-01-05T21:39:01.010Z,7.50
2023-01-05T21:41:46.666Z,8.00
2023-01-05T21:44:15.057Z,8.07
2023-01-05T21:46:43.055Z,7.77
2023-01-05T21:49:11.871Z,7.83
2023-01-05T21:51:59.505Z,7.13
2023-01-05T21:54:47.269Z,7.70
2023-01-05T21:57:14.713Z,6.57
2023-01-05T21:59:47.114Z,6.97
2023-01-05T22:02:15.788Z,5.95
2023-01-05T22:04:44.279Z,5.90
2023-01-05T22:07:12.668Z,4.87
2023-01-05T22:09:40.971Z,5.25
2023-01-05T22:12:09.941Z,4.13
2023-01-05T22:14:38.631Z,3.78
2023-01-05T22:17:06.969Z,4.43
2023-01-05T22:19:34.580Z,3.88
2023-01-05T22:22:02.329Z,3.50
2023-01-05T22:24:30.095Z,4.13
2023-01-05T22:26:58.634Z,4.07
2023-01-05T22:29:26.401Z,4.67
2023-01-05T22:31:54.929Z,4.40
2023-01-05T22:34:22.859Z,4.17
2023-01-05T22:36:50.793Z,5.30
2023-01-05T22:39:18.287Z,4.40
2023-01-05T22:41:46.711Z,5.00
2023-01-05T22:44:14.128Z,4.50
2023-01-05T22:46:41.619Z,5.30
2023-01-05T22:49:10.719Z,4.10
2023-01-05T22:51:38.632Z,3.90
2023-01-05T22:54:06.354Z,4.22
2023-01-05T22:56:34.720Z,4.33
2023-01-05T22:59:02.903Z,3.70
2023-01-05T23:01:33.432Z,4.35
2023-01-05T23:04:01.769Z,4.40
2023-01-05T23:06:30.147Z,4.45
2023-01-05T23:08:58.133Z,4.70
2023-01-05T23:11:34.006Z,4.47
2023-01-05T23:14:02.724Z,3.90
2023-01-05T23:16:30.291Z,3.80
2023-01-05T23:18:57.714Z,3.83
2023-01-05T23:21:30.990Z,4.00
2023-01-05T23:23:58.803Z,3.70
2023-01-05T23:26:27.321Z,4.17
2023-01-05T23:28:54.944Z,4.10
2023-01-05T23:31:22.727Z,3.70
2023-01-05T23:33:50.177Z,3.70
2023-01-05T23:36:18.906Z,4.00
2023-01-05T23:38:47.356Z,4.53
2023-01-05T23:41:15.602Z,5.53
2023-01-05T23:43:45.291Z,4.85
2023-01-05T23:46:20.817Z,5.00
2023-01-05T23:48:48.870Z,4.88
2023-01-05T23:51:17.916Z,4.43
2023-01-05T23:53:51.230Z,4.00
2023-01-05T23:56:20.283Z,3.55
2023-01-05T23:58:48.207Z,4.27
